createdAt,value
2023-05-06T00:01:15.214Z,7.40
2023-05-06T00:04:18.211Z,7.50
2023-05-06T00:07:21.796Z,7.72
2023-05-06T00:10:24.754Z,7.43
2023-05-06T00:13:27.571Z,7.75
2023-05-06T00:16:30.593Z,8.00
2023-05-06T00:19:33.570Z,7.43
2023-05-06T00:22:36.461Z,7.82
2023-05-06T00:25:39.204Z,7.95
2023-05-06T00:28:41.964Z,8.27
2023-05-06T00:31:45.522Z,7.53
2023-05-06T00:34:48.650Z,8.15
2023-05-06T00:38:17.222Z,8.32
2023-05-06T00:41:20.168Z,7.47
2023-05-06T00:44:23.236Z,8.63
2023-05-06T00:47:26.520Z,7.77
2023-05-06T00:50:29.999Z,7.82
2023-05-06T00:53:33.695Z,8.57
2023-05-06T00:56:36.726Z,8.07
2023-05-06T00:59:40.534Z,7.93
2023-05-06T01:02:47.432Z,7.90
2023-05-06T01:06:26.368Z,8.45
2023-05-06T01:09:50.146Z,8.77
2023-05-06T01:13:06.339Z,8.95
2023-05-06T01:16:12.871Z,8.82
2023-05-06T01:19:36.872Z,9.33
2023-05-06T01:22:39.931Z,8.68
2023-05-06T01:25:43.122Z,9.57
2023-05-06T01:28:45.986Z,9.43
2023-05-06T01:31:51.896Z,9.68
2023-05-06T01:35:12.507Z,9.67
2023-05-06T01:38:21.231Z,9.20
2023-05-06T01:41:25.733Z,9.98
2023-05-06T01:44:33.482Z,10.05
2023-05-06T01:47:38.144Z,9.48
2023-05-06T01:50:41.576Z,9.43
2023-05-06T01:53:44.566Z,9.70
2023-05-06T01:56:47.416Z,9.88
2023-05-06T01:59:51.022Z,9.68
2023-05-06T02:02:53.916Z,10.65
2023-05-06T02:05:57.074Z,9.50
2023-05-06T02:09:01.941Z,9.15
2023-05-06T02:12:06.226Z,10.13
2023-05-06T02:15:09.690Z,9.10
2023-05-06T02:18:13.315Z,10.07
2023-05-06T02:21:16.263Z,10.20
2023-05-06T02:24:19.261Z,9.20
2023-05-06T02:27:22.006Z,10.25
2023-05-06T02:30:24.857Z,9.38
2023-05-06T02:33:27.801Z,10.45
2023-05-06T02:36:30.640Z,9.83
2023-05-06T02:39:33.630Z,9.73
2023-05-06T02:42:37.401Z,9.98
2023-05-06T02:45:40.246Z,10.38
2023-05-06T02:48:43.468Z,11.77
2023-05-06T02:51:46.615Z,10.80
2023-05-06T02:54:49.372Z,10.88
2023-05-06T02:57:52.094Z,11.20
2023-05-06T03:00:55.096Z,11.73
2023-05-06T03:03:58.562Z,11.73
2023-05-06T03:07:01.354Z,10.90
2023-05-06T03:10:05.162Z,10.80
2023-05-06T03:13:10.732Z,11.43
2023-05-06T03:16:17.427Z,11.38
2023-05-06T03:19:24.798Z,10.40
2023-05-06T03:22:27.611Z,10.87
2023-05-06T03:25:30.865Z,11.82
2023-05-06T03:28:33.814Z,12.20
2023-05-06T03:31:38.886Z,11.93
2023-05-06T03:34:41.954Z,12.07
2023-05-06T03:37:47.622Z,12.77
2023-05-06T03:40:51.293Z,13.20
2023-05-06T03:43:55.866Z,14.43
2023-05-06T03:47:02.172Z,12.98
2023-05-06T03:50:07.292Z,14.25
2023-05-06T03:53:11.614Z,13.30
2023-05-06T03:56:18.379Z,13.65
2023-05-06T03:59:24.347Z,13.25
2023-05-06T04:02:29.545Z,12.68
2023-05-06T04:05:33.910Z,12.85
2023-05-06T04:08:37.657Z,13.33
2023-05-06T04:11:41.053Z,14.23
2023-05-06T04:14:46.536Z,13.60
2023-05-06T04:17:49.599Z,12.98
2023-05-06T04:20:53.664Z,12.75
2023-05-06T04:23:56.687Z,11.70
2023-05-06T04:27:07.777Z,11.35
2023-05-06T04:30:11.317Z,11.63
2023-05-06T04:33:14.982Z,10.57
2023-05-06T04:36:19.059Z,11.55
2023-05-06T04:39:58.104Z,11.30
2023-05-06T04:43:01.441Z,10.95
2023-05-06T04:46:05.253Z,11.45
2023-05-06T04:49:12.456Z,10.90
2023-05-06T04:52:15.712Z,10.35
2023-05-06T04:55:19.251Z,9.30
2023-05-06T04:58:26.934Z,9.55
2023-05-06T05:01:31.553Z,10.55
2023-05-06T05:04:35.117Z,10.35
2023-05-06T05:07:37.856Z,10.80
2023-05-06T05:10:43.857Z,11.30
2023-05-06T05:13:50.228Z,10.43
2023-05-06T05:16:53.280Z,10.30
2023-05-06T05:19:56.312Z,9.98
2023-05-06T05:22:59.069Z,10.27
2023-05-06T05:26:02.106Z,10.47
2023-05-06T05:29:05.021Z,10.63
2023-05-06T05:32:08.812Z,11.30
2023-05-06T05:35:12.363Z,10.88
2023-05-06T05:38:17.569Z,11.50
2023-05-06T05:41:20.965Z,11.20
2023-05-06T05:44:24.557Z,11.73
2023-05-06T05:47:28.110Z,11.98
2023-05-06T05:50:31.230Z,11.88
2023-05-06T05:53:34.684Z,12.05
2023-05-06T05:56:38.745Z,12.00
2023-05-06T05:59:41.696Z,12.23
2023-05-06T06:02:45.041Z,11.40
2023-05-06T06:05:52.985Z,12.35
2023-05-06T06:12:16.213Z,12.80
2023-05-06T06:15:19.081Z,12.90
2023-05-06T06:18:22.825Z,12.05
2023-05-06T06:21:26.049Z,12.77
2023-05-06T06:24:30.008Z,12.38
2023-05-06T06:27:36.905Z,12.63
2023-05-06T06:30:40.935Z,12.98
2023-05-06T06:33:44.230Z,13.25
2023-05-06T06:36:54.277Z,12.30
2023-05-06T06:39:57.190Z,11.95
2023-05-06T06:42:59.988Z,11.87
2023-05-06T06:46:23.707Z,12.43
2023-05-06T06:49:27.558Z,11.75
2023-05-06T06:52:30.604Z,11.57
2023-05-06T06:55:33.560Z,10.98
2023-05-06T06:58:36.450Z,10.93
2023-05-06T07:01:39.263Z,10.90
2023-05-06T07:04:42.236Z,11.15
2023-05-06T07:07:46.591Z,9.68
2023-05-06T07:10:49.350Z,9.85
2023-05-06T07:13:52.557Z,9.17
2023-05-06T07:16:56.155Z,9.40
2023-05-06T07:19:59.164Z,9.43
2023-05-06T07:23:10.929Z,9.35
2023-05-06T07:26:13.777Z,10.05
2023-05-06T07:29:31.179Z,8.50
2023-05-06T07:32:37.382Z,9.00
2023-05-06T07:35:40.238Z,9.25
2023-05-06T07:38:43.066Z,8.02
2023-05-06T07:41:46.051Z,7.50
2023-05-06T07:44:49.063Z,6.50
2023-05-06T07:47:52.115Z,6.90
2023-05-06T07:50:55.596Z,6.70
2023-05-06T07:53:58.341Z,6.45
2023-05-06T07:57:05.013Z,6.20
2023-05-06T08:00:18.095Z,5.97
2023-05-06T08:03:22.387Z,5.25
2023-05-06T08:06:25.499Z,5.63
2023-05-06T08:09:28.514Z,5.03
2023-05-06T08:12:40.971Z,5.30
2023-05-06T08:16:21.240Z,5.10
2023-05-06T08:19:24.849Z,5.38
2023-05-06T08:22:27.686Z,4.80
2023-05-06T08:25:30.960Z,4.57
2023-05-06T08:28:33.880Z,4.68
2023-05-06T08:31:36.725Z,3.70
2023-05-06T08:34:39.580Z,4.10
2023-05-06T08:37:42.955Z,4.50
2023-05-06T08:40:45.863Z,4.25
2023-05-06T08:43:50.512Z,4.95
2023-05-06T08:46:53.499Z,4.17
2023-05-06T08:49:56.530Z,4.50
2023-05-06T08:53:01.315Z,4.40
2023-05-06T08:56:08.831Z,4.18
2023-05-06T08:59:13.837Z,4.30
2023-05-06T09:02:16.976Z,4.20
2023-05-06T09:05:19.911Z,4.10
2023-05-06T09:08:23.136Z,4.43
2023-05-06T09:11:29.795Z,4.47
2023-05-06T09:14:32.520Z,4.28
2023-05-06T09:17:36.722Z,4.07
2023-05-06T09:20:47.562Z,4.10
2023-05-06T09:23:50.447Z,3.92
2023-05-06T09:26:57.038Z,4.07
2023-05-06T09:30:12.277Z,4.10
2023-05-06T09:33:15.441Z,3.90
2023-05-06T09:36:18.689Z,4.10
2023-05-06T09:39:26.259Z,3.88
2023-05-06T09:42:31.092Z,3.67
2023-05-06T09:45:34.533Z,3.67
2023-05-06T09:48:37.944Z,4.00
2023-05-06T09:51:48.041Z,3.58
2023-05-06T09:54:52.033Z,3.47
2023-05-06T09:57:55.614Z,3.33
2023-05-06T10:00:59.094Z,3.60
2023-05-06T10:04:06.247Z,3.03
2023-05-06T10:07:12.602Z,3.55
2023-05-06T10:10:16.808Z,3.38
2023-05-06T10:13:21.646Z,3.28
2023-05-06T10:16:24.654Z,2.92
2023-05-06T10:19:28.630Z,2.90
2023-05-06T10:22:52.477Z,3.40
2023-05-06T10:26:07.052Z,3.17
2023-05-06T10:29:11.487Z,3.60
2023-05-06T10:32:14.604Z,3.85
2023-05-06T10:35:38.587Z,3.97
2023-05-06T10:38:43.784Z,3.47
2023-05-06T10:41:48.205Z,3.22
2023-05-06T10:44:57.921Z,3.67
2023-05-06T10:48:03.882Z,3.30
2023-05-06T10:51:26.315Z,3.43
2023-05-06T10:54:29.215Z,3.50
2023-05-06T10:57:41.462Z,3.70
2023-05-06T11:00:55.631Z,3.83
2023-05-06T11:04:02.426Z,3.13
2023-05-06T11:07:16.087Z,3.20
2023-05-06T11:10:33.094Z,3.03
2023-05-06T11:13:35.939Z,3.15
2023-05-06T11:16:49.463Z,3.10
2023-05-06T11:20:21.929Z,2.70
2023-05-06T11:23:46.838Z,2.83
2023-05-06T11:26:50.763Z,2.80
2023-05-06T11:29:53.525Z,2.85
2023-05-06T11:32:58.981Z,2.65
2023-05-06T11:36:02.793Z,2.97
2023-05-06T11:39:08.368Z,2.60
2023-05-06T11:42:11.954Z,3.10
2023-05-06T11:45:14.813Z,3.70
2023-05-06T11:48:18.337Z,3.25
2023-05-06T11:51:24.272Z,3.30
2023-05-06T11:54:27.642Z,3.33
2023-05-06T11:57:30.519Z,3.20
2023-05-06T12:00:33.479Z,3.25
2023-05-06T12:03:36.851Z,3.30
2023-05-06T12:06:40.287Z,2.85
2023-05-06T12:09:47.954Z,3.10
2023-05-06T12:12:51.763Z,2.28
2023-05-06T12:15:56.040Z,2.58
2023-05-06T12:18:58.868Z,3.28
2023-05-06T12:22:29.369Z,3.00
2023-05-06T12:25:37.300Z,2.90
2023-05-06T12:28:42.865Z,2.70
2023-05-06T12:31:49.428Z,3.10
2023-05-06T12:34:52.335Z,3.20
2023-05-06T12:37:56.160Z,3.60
2023-05-06T12:40:58.981Z,3.23
2023-05-06T12:44:01.804Z,3.17
2023-05-06T12:47:09.503Z,3.53
2023-05-06T12:50:12.699Z,3.17
2023-05-06T12:53:31.451Z,3.33
2023-05-06T12:56:34.269Z,3.20
2023-05-06T12:59:37.607Z,3.22
2023-05-06T13:02:41.583Z,3.45
2023-05-06T13:05:44.494Z,2.92
2023-05-06T13:08:47.563Z,2.85
2023-05-06T13:11:50.683Z,3.00
2023-05-06T13:14:53.406Z,2.75
2023-05-06T13:17:57.411Z,2.92
2023-05-06T13:21:00.921Z,3.00
2023-05-06T13:24:04.667Z,3.50
2023-05-06T13:27:07.580Z,3.40
2023-05-06T13:30:10.920Z,3.30
2023-05-06T13:33:14.497Z,3.00
2023-05-06T13:36:17.444Z,3.08
2023-05-06T13:39:21.812Z,3.10
2023-05-06T13:42:24.696Z,3.10
2023-05-06T13:45:27.906Z,2.80
2023-05-06T13:48:30.772Z,3.00
2023-05-06T13:51:34.735Z,3.10
2023-05-06T13:54:37.846Z,3.05
2023-05-06T13:57:40.770Z,3.33
2023-05-06T14:00:43.677Z,3.05
2023-05-06T14:03:46.804Z,3.67
2023-05-06T14:06:49.622Z,3.42
2023-05-06T14:09:52.671Z,3.60
2023-05-06T14:12:55.513Z,3.17
2023-05-06T14:15:59.559Z,3.40
2023-05-06T14:19:02.526Z,3.10
2023-05-06T14:22:05.319Z,2.70
2023-05-06T14:25:09.718Z,3.45
2023-05-06T14:28:13.133Z,3.00
2023-05-06T14:31:16.052Z,2.80
2023-05-06T14:34:18.852Z,3.33
2023-05-06T14:37:21.742Z,3.28
2023-05-06T14:40:24.611Z,3.28
2023-05-06T14:43:27.367Z,2.87
2023-05-06T14:46:30.127Z,3.20
2023-05-06T14:49:32.913Z,3.15
2023-05-06T14:52:39.602Z,2.80
2023-05-06T14:55:42.653Z,3.30
2023-05-06T14:58:46.276Z,2.80
2023-05-06T15:01:49.166Z,3.10
2023-05-06T15:04:52.948Z,3.08
2023-05-06T15:07:55.786Z,2.80
2023-05-06T15:10:58.674Z,2.80
2023-05-06T15:14:01.516Z,3.27
2023-05-06T15:17:04.742Z,2.70
2023-05-06T15:20:08.954Z,3.10
2023-05-06T15:23:11.866Z,2.95
2023-05-06T15:26:14.774Z,3.00
2023-05-06T15:29:20.589Z,3.10
2023-05-06T15:32:23.621Z,2.90
2023-05-06T15:35:26.414Z,3.53
2023-05-06T15:38:29.506Z,3.40
2023-05-06T15:41:33.724Z,3.10
2023-05-06T15:44:37.546Z,2.80
2023-05-06T15:47:40.589Z,3.60
2023-05-06T15:50:43.472Z,2.70
2023-05-06T15:53:47.645Z,2.85
2023-05-06T15:56:50.426Z,2.90
2023-05-06T15:59:53.208Z,3.30
2023-05-06T16:02:56.081Z,3.00
2023-05-06T16:05:59.758Z,2.90
2023-05-06T16:09:02.732Z,2.53
2023-05-06T16:12:06.287Z,2.95
2023-05-06T16:15:09.824Z,3.10
2023-05-06T16:18:12.924Z,2.88
2023-05-06T16:21:15.784Z,3.05
2023-05-06T16:24:18.699Z,2.88
2023-05-06T16:27:21.645Z,2.53
2023-05-06T16:30:24.550Z,2.50
2023-05-06T16:33:27.389Z,3.05
2023-05-06T16:36:30.229Z,3.10
2023-05-06T16:39:33.155Z,2.90
2023-05-06T16:42:36.161Z,2.83
2023-05-06T16:45:39.951Z,2.73
2023-05-06T16:48:42.903Z,3.00
2023-05-06T16:51:45.919Z,2.85
2023-05-06T16:54:48.930Z,2.83
2023-05-06T16:57:51.757Z,2.90
2023-05-06T17:00:54.575Z,3.20
2023-05-06T17:03:57.482Z,2.90
2023-05-06T17:07:00.518Z,2.92
2023-05-06T17:10:03.756Z,3.10
2023-05-06T17:13:06.713Z,3.53
2023-05-06T17:16:09.660Z,3.07
2023-05-06T17:19:12.636Z,3.78
2023-05-06T17:22:16.268Z,3.92
2023-05-06T17:25:19.123Z,3.60
2023-05-06T17:28:22.047Z,3.63
2023-05-06T17:31:25.068Z,3.83
2023-05-06T17:34:27.885Z,3.55
2023-05-06T17:37:31.785Z,4.07
2023-05-06T17:40:34.661Z,4.03
2023-05-06T17:43:37.618Z,4.53
2023-05-06T17:46:40.407Z,4.40
2023-05-06T17:49:43.298Z,4.20
2023-05-06T17:52:48.973Z,3.95
2023-05-06T17:55:51.731Z,4.50
2023-05-06T17:58:54.501Z,4.63
2023-05-06T18:01:57.456Z,4.83
2023-05-06T18:05:00.456Z,4.97
2023-05-06T18:08:04.965Z,5.47
2023-05-06T18:11:07.810Z,5.22
2023-05-06T18:14:11.269Z,5.07
2023-05-06T18:17:14.154Z,4.70
2023-05-06T18:20:17.173Z,4.95
2023-05-06T18:23:19.994Z,4.93
2023-05-06T18:26:39.845Z,4.97
2023-05-06T18:29:45.882Z,4.57
2023-05-06T18:32:50.971Z,4.93
2023-05-06T18:35:54.698Z,5.38
2023-05-06T18:38:57.511Z,6.53
2023-05-06T18:42:00.806Z,7.30
2023-05-06T18:45:05.232Z,6.20
2023-05-06T18:48:08.044Z,6.47
2023-05-06T18:51:16.008Z,7.45
2023-05-06T18:54:19.248Z,9.15
2023-05-06T18:57:22.688Z,8.95
2023-05-06T19:00:26.577Z,7.93
2023-05-06T19:03:31.638Z,7.30
2023-05-06T19:06:34.790Z,7.35
2023-05-06T19:09:37.641Z,6.97
2023-05-06T19:12:41.708Z,6.07
2023-05-06T19:15:45.658Z,5.80
2023-05-06T19:18:48.656Z,5.70
2023-05-06T19:21:51.495Z,6.80
2023-05-06T19:24:54.550Z,6.55
2023-05-06T19:27:57.541Z,6.80
2023-05-06T19:31:00.817Z,6.18
2023-05-06T19:34:03.965Z,6.00
2023-05-06T19:37:06.927Z,6.13
2023-05-06T19:40:10.287Z,6.43
2023-05-06T19:43:13.181Z,6.32
2023-05-06T19:46:16.534Z,6.95
2023-05-06T19:49:19.363Z,6.37
2023-05-06T19:52:25.315Z,6.10
2023-05-06T19:55:28.144Z,6.55
2023-05-06T19:58:31.206Z,6.75
2023-05-06T20:01:34.343Z,6.28
2023-05-06T20:04:37.873Z,6.80
2023-05-06T20:07:41.557Z,6.30
2023-05-06T20:10:44.501Z,6.60
2023-05-06T20:13:47.531Z,7.03
2023-05-06T20:16:50.643Z,8.05
2023-05-06T20:19:57.386Z,7.63
2023-05-06T20:23:03.477Z,7.43
2023-05-06T20:26:06.395Z,6.80
2023-05-06T20:29:09.683Z,6.75
2023-05-06T20:32:13.179Z,7.20
2023-05-06T20:35:16.912Z,6.47
2023-05-06T20:38:20.787Z,6.00
2023-05-06T20:41:23.831Z,5.57
2023-05-06T20:44:27.020Z,6.07
2023-05-06T20:47:30.103Z,6.15
2023-05-06T20:50:33.088Z,5.63
2023-05-06T20:53:36.037Z,5.80
2023-05-06T20:56:38.913Z,5.72
2023-05-06T20:59:41.980Z,8.65
2023-05-06T21:03:10.107Z,7.25
2023-05-06T21:06:17.990Z,7.07
2023-05-06T21:09:21.527Z,7.13
2023-05-06T21:12:25.014Z,6.72
2023-05-06T21:15:27.866Z,6.82
2023-05-06T21:18:31.061Z,7.18
2023-05-06T21:21:34.157Z,7.63
2023-05-06T21:24:37.016Z,6.97
2023-05-06T21:27:39.875Z,6.95
2023-05-06T21:30:42.835Z,7.55
2023-05-06T21:33:46.647Z,7.25
2023-05-06T21:36:49.508Z,6.83
2023-05-06T21:39:54.254Z,7.15
2023-05-06T21:42:57.326Z,7.50
2023-05-06T21:46:03.720Z,7.65
2023-05-06T21:49:07.043Z,8.30
2023-05-06T21:52:10.082Z,8.40
2023-05-06T21:55:13.483Z,8.50
2023-05-06T21:58:16.683Z,8.93
2023-05-06T22:01:19.832Z,8.68
2023-05-06T22:04:23.022Z,8.88
2023-05-06T22:07:26.171Z,9.13
2023-05-06T22:10:29.481Z,9.10
2023-05-06T22:13:32.835Z,9.18
2023-05-06T22:16:38.584Z,8.43
2023-05-06T22:19:42.076Z,8.25
2023-05-06T22:22:45.427Z,8.00
2023-05-06T22:25:48.442Z,7.90
2023-05-06T22:28:51.333Z,7.88
2023-05-06T22:31:54.323Z,8.32
2023-05-06T22:34:57.710Z,8.05
2023-05-06T22:38:00.753Z,8.20
2023-05-06T22:41:03.816Z,7.97
2023-05-06T22:44:06.837Z,9.43
2023-05-06T22:47:09.706Z,8.23
2023-05-06T22:50:15.470Z,8.55
2023-05-06T22:53:18.522Z,8.27
2023-05-06T22:56:21.731Z,8.20
2023-05-06T22:59:24.825Z,8.02
2023-05-06T23:02:28.841Z,7.75
2023-05-06T23:05:32.117Z,7.30
2023-05-06T23:08:35.137Z,7.57
2023-05-06T23:11:38.141Z,7.78
2023-05-06T23:14:41.193Z,7.50
2023-05-06T23:17:44.244Z,7.40
2023-05-06T23:20:47.274Z,7.70
2023-05-06T23:23:50.267Z,7.37
2023-05-06T23:26:53.288Z,7.50
2023-05-06T23:29:56.277Z,7.40
2023-05-06T23:32:59.320Z,7.35
2023-05-06T23:36:02.803Z,7.53
2023-05-06T23:39:05.789Z,7.17
2023-05-06T23:42:08.762Z,7.13
2023-05-06T23:45:12.365Z,7.60
2023-05-06T23:48:15.673Z,7.47
2023-05-06T23:51:18.724Z,7.68
2023-05-06T23:54:21.793Z,8.00
2023-05-06T23:57:25.190Z,7.97
